Time;durP1;ratioP1;P1;durP2;ratioP2;P2;SDS_P1;SDS_P2;PMS_P1;PMS_P2;Temp;Humidity;BMP_temperature;BMP_pressure;BME280_temperature;BME280_humidity;BME280_pressure;Samples;Min_cycle;Max_cycle;Signal;HPM_P1;HPM_P2
2022/07/05 00:01:24;;;;;;;12.77;10.15;;;;;;;22.49;58.03;99340.16;5074847;28;20075;-61
2022/07/05 00:03:49;;;;;;;13.55;9.50;;;;;;;22.44;58.10;99348.53;5072795;28;20504;-62
2022/07/05 00:06:15;;;;;;;11.00;9.30;;;;;;;22.29;58.43;99324.25;5088668;28;20055;-62
2022/07/05 00:08:41;;;;;;;17.02;9.80;;;;;;;22.37;58.53;99344.75;5092167;28;20043;-61
2022/07/05 00:11:07;;;;;;;15.93;10.15;;;;;;;22.14;58.81;99314.16;5070965;28;20539;-61
2022/07/05 00:13:33;;;;;;;14.98;9.68;;;;;;;22.27;58.85;99347.38;5078531;28;20064;-62
2022/07/05 00:15:59;;;;;;;12.18;9.05;;;;;;;22.14;58.98;99333.50;5091843;28;20499;-62
2022/07/05 00:18:25;;;;;;;14.50;10.18;;;;;;;22.21;59.29;99344.41;5092661;28;20569;-60
2022/07/05 00:20:50;;;;;;;13.73;9.65;;;;;;;22.19;59.40;99347.19;5074068;28;20051;-59
2022/07/05 00:23:16;;;;;;;16.15;9.00;;;;;;;22.16;59.62;99347.47;5091888;28;20534;-60
2022/07/05 00:25:42;;;;;;;14.02;9.50;;;;;;;22.15;59.79;99344.94;5091463;28;20035;-61
2022/07/05 00:28:08;;;;;;;10.73;8.90;;;;;;;22.12;59.82;99354.00;5056705;28;20039;-61
2022/07/05 00:30:34;;;;;;;13.63;9.95;;;;;;;22.11;59.95;99354.13;5073952;28;20535;-61
2022/07/05 00:32:59;;;;;;;14.88;9.82;;;;;;;22.08;59.93;99357.91;5108616;28;20073;-60
2022/07/05 00:35:25;;;;;;;12.20;9.60;;;;;;;22.07;59.99;99358.88;5077468;28;20418;-60
2022/07/05 00:37:51;;;;;;;17.25;10.48;;;;;;;22.05;59.99;99352.84;5065353;28;20036;-61
2022/07/05 00:40:17;;;;;;;12.55;9.70;;;;;;;22.03;60.29;99357.47;5057390;28;20458;-61
2022/07/05 00:42:43;;;;;;;15.02;9.65;;;;;;;22.01;60.36;99347.97;5092707;28;20048;-61
2022/07/05 00:45:09;;;;;;;13.00;9.55;;;;;;;21.98;60.41;99354.38;5094686;28;20047;-61
2022/07/05 00:47:35;;;;;;;15.15;9.98;;;;;;;21.94;60.65;99353.78;5075240;28;20035;-61
2022/07/05 00:50:01;;;;;;;13.65;10.02;;;;;;;21.91;60.82;99347.88;5092543;28;20127;-60
2022/07/05 00:52:29;;;;;;;12.68;9.95;;;;;;;21.78;61.00;99331.38;5091638;28;20126;-60
2022/07/05 00:54:54;;;;;;;13.75;9.48;;;;;;;21.88;61.18;99351.63;5073281;28;20051;-61
2022/07/05 00:57:21;;;;;;;13.20;9.55;;;;;;;21.88;61.22;99361.38;5091632;28;20039;-59
2022/07/05 00:59:51;;;;;;;14.73;10.15;;;;;;;21.86;61.29;99356.22;5069180;28;20393;-61
2022/07/05 01:02:19;;;;;;;12.05;9.27;;;;;;;21.85;61.57;99356.34;5091279;28;20699;-60
2022/07/05 01:04:47;;;;;;;14.57;9.77;;;;;;;21.85;61.71;99365.13;5072491;28;20052;-60
2022/07/05 01:07:13;;;;;;;15.25;9.70;;;;;;;21.84;61.66;99367.91;5091389;28;20039;-60
2022/07/05 01:09:39;;;;;;;17.60;10.05;;;;;;;21.74;61.84;99343.19;5091053;28;20047;-60
2022/07/05 01:12:05;;;;;;;14.57;9.90;;;;;;;21.87;61.60;99359.72;5091342;28;20101;-60
2022/07/05 01:14:31;;;;;;;15.75;9.52;;;;;;;21.87;61.78;99360.56;5072349;28;20044;-60
2022/07/05 01:16:57;;;;;;;14.95;9.88;;;;;;;21.86;61.99;99363.34;5073081;28;20594;-61
2022/07/05 01:19:23;;;;;;;13.15;9.50;;;;;;;21.85;62.10;99372.22;5072138;28;20050;-59
2022/07/05 01:21:49;;;;;;;13.73;9.52;;;;;;;21.84;62.18;99373.19;5070361;28;20127;-60
2022/07/05 01:24:17;;;;;;;14.95;9.77;;;;;;;21.82;62.28;99376.00;5054771;28;20164;-60
2022/07/05 01:26:46;;;;;;;13.07;9.77;;;;;;;21.81;62.10;99368.19;5070276;28;20044;-60
2022/07/05 01:29:12;;;;;;;16.13;10.15;;;;;;;21.82;62.26;99369.88;5070665;28;20075;-61
2022/07/05 01:31:41;;;;;;;12.32;10.10;;;;;;;21.69;62.29;99343.59;5070506;28;20058;-61
2022/07/05 01:34:07;;;;;;;13.88;9.85;;;;;;;21.71;62.22;99348.78;5088887;28;20043;-61
2022/07/05 01:36:34;;;;;;;13.20;10.15;;;;;;;21.80;62.66;99363.84;5070720;28;20047;-60
2022/07/05 01:39:05;;;;;;;13.25;9.85;;;;;;;21.79;62.44;99368.31;5070647;28;20466;-61
2022/07/05 01:41:30;;;;;;;14.07;9.73;;;;;;;21.79;62.77;99364.81;5090266;28;20036;-61
2022/07/05 01:43:56;;;;;;;14.57;10.13;;;;;;;21.80;62.82;99362.03;5090188;28;20040;-60
2022/07/05 01:46:24;;;;;;;15.32;9.48;;;;;;;21.81;63.00;99361.09;5090457;28;20044;-61
2022/07/05 01:48:53;;;;;;;13.07;9.68;;;;;;;21.82;63.01;99351.34;5072244;28;20036;-61
2022/07/05 01:51:26;;;;;;;14.45;9.20;;;;;;;21.85;62.95;99354.53;5072372;28;20040;-60
2022/07/05 01:53:52;;;;;;;17.05;10.25;;;;;;;21.91;62.57;99354.03;5071452;28;20036;-60
2022/07/05 01:56:18;;;;;;;15.10;9.65;;;;;;;22.00;61.90;99355.06;5090324;28;20067;-60
2022/07/05 01:58:44;;;;;;;14.52;10.05;;;;;;;22.06;61.67;99349.25;5072190;28;20161;-59
2022/07/05 02:01:10;;;;;;;17.40;10.73;;;;;;;22.11;61.26;99351.47;5090277;28;20461;-60
2022/07/05 02:03:36;;;;;;;16.00;9.80;;;;;;;22.17;60.75;99349.16;5072139;28;20147;-61
2022/07/05 02:06:02;;;;;;;13.73;10.35;;;;;;;22.23;60.15;99347.78;5053194;28;20044;-60
2022/07/05 02:08:30;;;;;;;11.73;9.57;;;;;;;22.25;59.82;99345.81;5044447;28;20558;-60
2022/07/05 02:10:56;;;;;;;13.80;9.85;;;;;;;22.35;59.49;99362.56;5072144;28;20039;-60
2022/07/05 02:13:23;;;;;;;15.18;9.52;;;;;;;22.37;59.86;99361.47;5071406;28;20044;-60
2022/07/05 02:15:50;;;;;;;16.92;9.98;;;;;;;22.39;59.49;99356.88;5072050;28;20466;-62
2022/07/05 02:18:16;;;;;;;21.15;10.18;;;;;;;22.41;59.33;99356.72;5090360;28;20036;-60
2022/07/05 02:20:43;;;;;;;20.45;10.88;;;;;;;22.44;58.89;99359.13;5084951;28;20527;-61
2022/07/05 02:23:12;;;;;;;13.65;10.52;;;;;;;22.47;58.82;99361.50;5072074;28;20514;-60
2022/07/05 02:25:39;;;;;;;18.05;10.20;;;;;;;22.51;58.70;99367.34;5054995;28;20512;-61
2022/07/05 02:28:11;;;;;;;16.15;9.68;;;;;;;22.53;58.66;99360.13;5071617;28;20230;-61
2022/07/05 02:30:38;;;;;;;12.13;9.00;;;;;;;22.54;59.03;99359.16;5055703;28;20079;-60
2022/07/05 02:33:05;;;;;;;13.55;9.02;;;;;;;22.53;59.35;99354.81;5072802;28;20059;-59
2022/07/05 02:35:31;;;;;;;17.27;9.63;;;;;;;22.54;59.45;99360.00;5064723;28;20043;-60
2022/07/05 02:37:58;;;;;;;16.63;10.23;;;;;;;22.47;58.93;99344.75;5055005;28;20050;-60
2022/07/05 02:40:24;;;;;;;14.68;9.75;;;;;;;22.61;58.75;99368.25;5054864;28;20529;-59
2022/07/05 02:42:51;;;;;;;15.50;9.48;;;;;;;22.64;58.67;99365.31;5072079;28;20078;-61
2022/07/05 02:45:18;;;;;;;16.52;10.32;;;;;;;22.65;58.72;99362.53;5055660;28;20488;-60
2022/07/05 02:47:49;;;;;;;16.15;9.65;;;;;;;22.65;58.70;99367.81;5072153;28;20047;-61
2022/07/05 02:50:16;;;;;;;14.32;9.90;;;;;;;22.63;58.83;99364.47;5071959;28;20039;-61
2022/07/05 02:52:47;;;;;;;14.20;9.50;;;;;;;22.63;58.91;99358.31;5049220;28;20036;-60
2022/07/05 02:55:14;;;;;;;14.75;10.02;;;;;;;22.53;59.15;99347.72;5070382;28;20044;-61
2022/07/05 02:57:40;;;;;;;14.15;9.55;;;;;;;22.64;59.09;99370.59;5071878;28;20052;-61
2022/07/05 03:00:09;;;;;;;13.95;9.75;;;;;;;22.65;58.96;99367.81;5055619;28;20036;-60
2022/07/05 03:02:39;;;;;;;24.33;10.88;;;;;;;22.70;58.89;99367.41;5071375;28;20060;-61
2022/07/05 03:05:07;;;;;;;17.75;9.63;;;;;;;22.75;58.57;99370.53;5054942;28;20139;-61
2022/07/05 03:07:32;;;;;;;14.60;10.02;;;;;;;22.78;58.66;99376.38;5054595;28;20146;-61
2022/07/05 03:09:59;;;;;;;14.13;10.20;;;;;;;22.79;58.63;99371.91;5054851;28;20423;-60
2022/07/05 03:12:26;;;;;;;16.35;9.55;;;;;;;22.81;58.55;99375.28;5071221;28;20466;-60
2022/07/05 03:14:52;;;;;;;13.73;10.43;;;;;;;22.83;58.69;99372.47;5055819;28;20048;-61
2022/07/05 03:17:20;;;;;;;14.45;9.57;;;;;;;22.85;58.62;99374.03;5071549;28;20072;-61
2022/07/05 03:19:46;;;;;;;15.65;10.00;;;;;;;22.82;58.76;99371.63;5038194;28;20086;-60
2022/07/05 03:22:14;;;;;;;13.82;11.27;;;;;;;22.80;58.63;99357.69;5071231;28;20507;-61
2022/07/05 03:24:41;;;;;;;17.52;10.50;;;;;;;23.01;58.36;99379.63;5070706;28;20070;-62
2022/07/05 03:27:07;;;;;;;13.70;9.77;;;;;;;23.06;58.54;99382.69;5054583;28;20040;-61
2022/07/05 03:29:34;;;;;;;18.95;9.98;;;;;;;23.10;58.81;99383.25;5071246;28;20039;-62
2022/07/05 03:32:00;;;;;;;17.55;9.93;;;;;;;23.11;58.72;99385.75;5071192;28;20418;-60
2022/07/05 03:34:29;;;;;;;18.35;10.65;;;;;;;23.18;58.33;99388.69;5055250;28;20046;-61
2022/07/05 03:36:57;;;;;;;23.70;14.00;;;;;;;23.26;58.07;99386.16;5070830;28;20078;-62
2022/07/05 03:39:23;;;;;;;23.42;10.98;;;;;;;23.29;58.09;99382.41;5071456;28;20063;-62
2022/07/05 03:41:48;;;;;;;14.07;10.00;;;;;;;23.34;57.96;99382.84;5054812;28;20432;-61
2022/07/05 03:44:19;;;;;;;15.68;10.07;;;;;;;23.32;58.18;99374.16;5062668;28;20116;-61
2022/07/05 03:46:45;;;;;;;15.98;9.65;;;;;;;23.45;58.21;99388.84;5071792;28;20097;-61
2022/07/05 03:49:11;;;;;;;17.63;10.52;;;;;;;23.41;57.95;99381.28;5055321;28;20506;-60
2022/07/05 03:51:36;;;;;;;17.15;9.80;;;;;;;23.53;57.81;99391.63;5083881;28;20036;-61
2022/07/05 03:54:03;;;;;;;14.55;10.30;;;;;;;23.60;57.50;99398.03;5074855;28;20048;-59
2022/07/05 03:56:30;;;;;;;14.00;8.30;;;;;;;23.50;56.11;99373.31;5057938;28;20431;-61
2022/07/05 03:59:00;;;;;;;16.50;10.20;;;;;;;23.70;55.36;99386.56;5074674;28;20048;-61
2022/07/05 04:01:27;;;;;;;13.52;8.27;;;;;;;23.89;54.86;99405.09;5079239;28;20093;-61
2022/07/05 04:03:54;;;;;;;15.55;9.25;;;;;;;23.98;54.48;99414.84;5074698;28;20191;-61
2022/07/05 04:06:20;;;;;;;15.82;9.45;;;;;;;24.04;54.63;99407.16;5074574;28;20032;-60
2022/07/05 04:08:46;;;;;;;16.92;8.68;;;;;;;24.15;53.80;99397.34;5083754;28;20538;-60
2022/07/05 04:11:13;;;;;;;13.77;8.25;;;;;;;24.24;52.92;99407.09;5093115;28;20044;-62
2022/07/05 04:13:41;;;;;;;12.82;8.85;;;;;;;24.33;52.41;99408.91;5065877;28;20044;-60
2022/07/05 04:16:07;;;;;;;14.25;8.05;;;;;;;24.40;52.15;99410.81;5085849;28;20047;-60
2022/07/05 04:18:33;;;;;;;12.98;8.05;;;;;;;24.38;51.72;99385.41;5074583;28;20040;-61
2022/07/05 04:21:01;;;;;;;12.45;8.00;;;;;;;24.53;51.80;99401.69;5056506;28;20045;-61
2022/07/05 04:23:27;;;;;;;8.20;6.75;;;;;;;24.42;50.88;99368.16;5050648;28;20044;-61
2022/07/05 04:25:53;;;;;;;14.32;7.75;;;;;;;24.66;50.48;99405.66;5067162;28;20051;-60
2022/07/05 04:28:25;;;;;;;8.60;7.00;;;;;;;24.71;50.36;99392.75;5050509;28;20098;-62
2022/07/05 04:30:54;;;;;;;9.17;7.50;;;;;;;24.78;49.48;99400.97;5067402;28;20398;-60
2022/07/05 04:33:21;;;;;;;16.27;7.38;;;;;;;24.82;48.77;99408.50;5073030;28;20471;-60
2022/07/05 04:35:49;;;;;;;8.27;6.30;;;;;;;24.81;48.48;99382.88;5066394;28;20049;-61
2022/07/05 04:38:16;;;;;;;12.07;7.20;;;;;;;24.95;48.11;99402.84;5050287;28;20052;-60
2022/07/05 04:40:45;;;;;;;11.90;7.32;;;;;;;24.91;48.10;99385.53;5066324;28;20040;-61
2022/07/05 04:43:11;;;;;;;8.45;7.13;;;;;;;25.08;48.17;99402.47;5050025;28;20865;-61
2022/07/05 04:45:37;;;;;;;12.52;7.13;;;;;;;25.08;47.73;99389.16;5051553;28;20064;-60
2022/07/05 04:48:04;;;;;;;11.20;6.72;;;;;;;25.16;47.70;99395.41;5050341;28;20487;-60
2022/07/05 04:50:32;;;;;;;10.47;6.60;;;;;;;25.31;47.78;99403.69;5038929;28;20120;-61
2022/07/05 04:52:58;;;;;;;8.05;6.43;;;;;;;25.36;47.17;99400.56;5050520;28;20079;-61
2022/07/05 04:55:24;;;;;;;7.80;6.30;;;;;;;25.42;46.34;99402.63;5051140;28;20088;-61
2022/07/05 04:57:50;;;;;;;9.20;6.35;;;;;;;25.47;46.41;99387.03;5065951;28;20584;-61
2022/07/05 05:00:16;;;;;;;12.63;6.72;;;;;;;25.55;46.86;99406.56;5050397;28;20136;-61
2022/07/05 05:02:41;;;;;;;10.18;6.82;;;;;;;25.60;46.93;99398.13;5051727;28;20043;-60
2022/07/05 05:05:08;;;;;;;7.65;6.28;;;;;;;25.70;46.45;99398.84;5051333;28;20051;-60
2022/07/05 05:07:34;;;;;;;10.48;6.70;;;;;;;25.73;46.59;99394.06;5066896;28;20071;-60
2022/07/05 05:10:00;;;;;;;11.98;6.35;;;;;;;25.85;46.65;99400.00;5051431;28;20036;-61
2022/07/05 05:12:26;;;;;;;11.63;6.50;;;;;;;25.83;46.43;99390.47;5066279;28;20110;-60
2022/07/05 05:14:51;;;;;;;13.13;7.03;;;;;;;25.96;46.33;99388.22;5054927;28;20041;-62
2022/07/05 05:17:17;;;;;;;8.23;6.63;;;;;;;26.07;46.34;99398.59;5067121;28;20051;-60
2022/07/05 05:19:44;;;;;;;10.90;7.40;;;;;;;26.15;45.97;99390.66;5063532;28;20055;-61
2022/07/05 05:22:10;;;;;;;8.82;7.03;;;;;;;26.10;45.91;99374.31;5091444;28;20153;-61
2022/07/05 05:24:36;;;;;;;12.88;6.82;;;;;;;26.30;45.50;99401.59;5091002;28;20040;-62
2022/07/05 05:27:02;;;;;;;10.88;6.80;;;;;;;26.36;44.79;99404.44;5090827;28;20047;-60
2022/07/05 05:29:27;;;;;;;9.82;7.20;;;;;;;26.44;44.28;99398.31;5056313;28;20047;-61
2022/07/05 05:31:55;;;;;;;12.50;7.15;;;;;;;26.53;44.48;99400.88;5073175;28;20504;-61
2022/07/05 05:34:21;;;;;;;9.68;6.60;;;;;;;26.54;44.04;99385.69;5059441;28;20046;-60
2022/07/05 05:36:46;;;;;;;12.88;6.97;;;;;;;26.64;44.18;99383.69;5090574;28;20036;-59
2022/07/05 05:39:13;;;;;;;8.40;6.88;;;;;;;26.91;44.78;99403.97;5073002;28;20508;-60
2022/07/05 05:41:39;;;;;;;15.48;7.32;;;;;;;27.02;43.90;99400.16;5090409;28;20040;-60
2022/07/05 05:44:05;;;;;;;8.48;6.82;;;;;;;27.12;43.47;99396.34;5090791;28;20047;-61
2022/07/05 05:46:30;;;;;;;15.25;7.10;;;;;;;27.15;43.46;99380.03;5093172;28;20191;-60
2022/07/05 05:49:15;;;;;;;9.50;6.53;;;;;;;27.34;42.70;99393.03;5070697;28;20042;-62
2022/07/05 05:51:55;;;;;;;10.32;6.63;;;;;;;27.44;43.20;99379.50;5095169;28;20051;-61
2022/07/05 05:54:21;;;;;;;8.07;6.32;;;;;;;27.53;42.49;99383.88;5090278;28;20511;-61
2022/07/05 05:56:47;;;;;;;10.45;6.38;;;;;;;27.48;42.38;99361.34;5100470;28;20400;-61
2022/07/05 05:59:12;;;;;;;12.63;7.15;;;;;;;27.71;42.01;99394.38;5096620;28;20171;-61
2022/07/05 06:01:38;;;;;;;8.70;6.10;;;;;;;27.85;41.19;99392.84;5082048;28;20063;-61
2022/07/05 06:04:04;;;;;;;7.90;6.20;;;;;;;27.80;40.13;99383.50;5091549;28;20047;-60
2022/07/05 06:06:30;;;;;;;7.18;5.95;;;;;;;27.70;40.01;99361.50;5100632;28;20039;-60
2022/07/05 06:08:56;;;;;;;6.88;6.10;;;;;;;27.96;40.01;99393.34;5099746;28;20039;-61
2022/07/05 06:11:21;;;;;;;7.35;6.22;;;;;;;28.08;39.38;99394.66;5095882;28;20031;-57
2022/07/05 06:13:50;;;;;;;10.10;6.28;;;;;;;28.16;39.13;99393.81;5093982;28;20063;-58
2022/07/05 06:16:16;;;;;;;9.85;6.55;;;;;;;28.23;39.13;99386.78;5092399;28;20122;-59
2022/07/05 06:18:42;;;;;;;9.05;5.80;;;;;;;28.40;38.70;99391.06;5089661;28;20519;-54
2022/07/05 06:21:08;;;;;;;11.10;6.30;;;;;;;28.44;38.64;99375.50;5097661;28;20040;-57
2022/07/05 06:23:33;;;;;;;7.57;6.45;;;;;;;28.60;37.96;99389.63;5092599;28;20052;-50
2022/07/05 06:25:59;;;;;;;11.48;6.10;;;;;;;28.61;37.73;99390.47;5095623;28;20040;-52
2022/07/05 06:28:25;;;;;;;10.07;6.32;;;;;;;28.62;37.62;99381.44;5079658;28;20427;-52
2022/07/05 06:30:52;;;;;;;6.30;5.70;;;;;;;28.85;38.21;99381.50;5094791;28;20414;-58
2022/07/05 06:36:04;;;;;;;7.93;6.18;;;;;;;29.04;36.97;99381.03;5082949;28;20039;-58
2022/07/05 06:38:29;;;;;;;10.43;6.68;;;;;;;29.10;36.99;99380.31;5079950;28;20035;-57
2022/07/05 06:40:56;;;;;;;9.23;6.25;;;;;;;29.34;36.83;99374.81;5088632;28;20036;-56
2022/07/05 06:43:22;;;;;;;8.30;6.25;;;;;;;29.66;35.91;99376.38;5077524;28;20043;-57
2022/07/05 06:46:01;;;;;;;8.90;6.70;;;;;;;30.25;35.50;99376.44;5079959;28;20048;-58
2022/07/05 06:48:27;;;;;;;7.60;6.13;;;;;;;30.79;34.30;99365.34;5099010;28;20092;-59
2022/07/05 06:50:53;;;;;;;8.48;6.60;;;;;;;31.62;33.06;99378.16;5097525;28;20073;-58
2022/07/05 06:53:19;;;;;;;9.50;7.43;;;;;;;32.46;31.56;99377.06;5107420;28;20051;-57
2022/07/05 06:55:45;;;;;;;8.20;6.55;;;;;;;33.47;30.29;99376.09;5091911;28;20063;-59
2022/07/05 06:58:11;;;;;;;7.50;6.80;;;;;;;34.58;29.19;99373.41;5091675;28;20036;-60
2022/07/05 07:00:38;;;;;;;10.35;6.70;;;;;;;35.44;27.06;99373.75;5073763;28;20035;-58
2022/07/05 07:03:04;;;;;;;8.02;7.15;;;;;;;35.96;26.53;99367.03;5077756;28;20566;-57
2022/07/05 07:05:30;;;;;;;11.43;6.45;;;;;;;36.98;24.96;99368.94;5099347;28;20043;-59
2022/07/05 07:10:40;;;;;;;7.90;7.10;;;;;;;37.40;24.49;99361.66;5079686;28;20451;-59
2022/07/05 07:13:06;;;;;;;7.65;6.82;;;;;;;37.86;23.47;99369.00;5093153;28;20043;-59
2022/07/05 07:15:37;;;;;;;11.18;6.93;;;;;;;38.29;23.21;99367.78;5090603;28;20032;-59
2022/07/05 07:18:03;;;;;;;7.82;7.10;;;;;;;38.67;22.37;99372.66;5074480;28;20092;-58
2022/07/05 07:20:30;;;;;;;8.05;7.25;;;;;;;38.99;22.50;99368.44;5095251;28;20048;-58
2022/07/05 07:22:56;;;;;;;11.00;7.32;;;;;;;39.53;21.57;99349.75;5068339;28;20048;-58
2022/07/05 07:25:25;;;;;;;7.15;6.45;;;;;;;39.90;21.11;99363.66;5076148;28;20036;-59
2022/07/05 07:27:52;;;;;;;7.57;6.90;;;;;;;39.92;21.25;99370.53;5060421;28;20810;-59
2022/07/05 07:30:21;;;;;;;9.63;6.80;;;;;;;40.37;20.72;99364.88;5098281;28;20048;-58
2022/07/05 07:32:47;;;;;;;10.68;7.18;;;;;;;40.62;20.40;99378.81;5084294;28;20031;-58
2022/07/05 07:35:13;;;;;;;8.02;7.15;;;;;;;40.74;20.24;99373.22;5094073;28;20074;-55
2022/07/05 07:37:39;;;;;;;8.02;7.30;;;;;;;41.13;20.00;99382.13;5094862;28;20526;-57
2022/07/05 07:40:06;;;;;;;8.05;7.35;;;;;;;41.72;19.32;99369.22;5097080;28;20051;-57
2022/07/05 07:42:34;;;;;;;10.32;6.78;;;;;;;42.31;18.91;99370.97;5099220;28;20051;-58
2022/07/05 07:45:03;;;;;;;8.15;7.18;;;;;;;42.83;18.67;99374.44;5083075;28;20047;-58
2022/07/05 07:47:31;;;;;;;7.55;6.47;;;;;;;43.04;18.39;99348.75;5083185;28;20546;-59
2022/07/05 07:49:57;;;;;;;10.57;6.80;;;;;;;43.64;18.11;99370.97;5098468;28;20046;-58
2022/07/05 07:52:23;;;;;;;8.38;7.05;;;;;;;43.70;18.17;99370.69;5086611;28;20040;-59
2022/07/05 07:54:48;;;;;;;9.00;7.80;;;;;;;43.72;17.31;99381.34;5085713;28;20241;-58
2022/07/05 07:57:14;;;;;;;10.43;7.10;;;;;;;42.18;18.57;99375.00;5076042;28;20040;-58
2022/07/05 07:59:40;;;;;;;8.77;7.05;;;;;;;41.95;18.62;99362.56;5083405;28;20040;-58
2022/07/05 08:02:06;;;;;;;10.18;7.88;;;;;;;42.02;18.82;99379.56;5093540;28;20543;-58
2022/07/05 08:04:32;;;;;;;9.32;7.68;;;;;;;41.73;18.77;99378.25;5108973;28;20104;-58
2022/07/05 08:06:58;;;;;;;8.30;7.40;;;;;;;41.94;18.69;99357.38;5097840;28;20040;-58
2022/07/05 08:09:24;;;;;;;9.57;8.45;;;;;;;43.19;17.78;99367.13;5101421;28;20040;-58
2022/07/05 08:11:50;;;;;;;9.98;7.75;;;;;;;43.57;17.45;99371.25;5077339;28;20127;-59
2022/07/05 08:14:17;;;;;;;11.38;7.90;;;;;;;43.15;17.39;99363.28;5095299;28;20040;-58
2022/07/05 08:16:44;;;;;;;7.90;6.57;;;;;;;41.49;18.79;99336.03;5080327;28;20039;-59
2022/07/05 08:21:54;;;;;;;9.80;7.40;;;;;;;39.04;21.67;99337.78;5088065;28;20037;-57
2022/07/05 08:24:20;;;;;;;8.77;7.70;;;;;;;38.30;22.59;99342.28;5057037;28;20127;-58
2022/07/05 08:26:46;;;;;;;10.75;8.13;;;;;;;37.44;23.21;99338.41;5092489;28;20039;-57
2022/07/05 08:29:13;;;;;;;9.35;8.35;;;;;;;36.82;24.12;99335.19;5102033;28;20043;-57
2022/07/05 08:31:44;;;;;;;12.38;8.20;;;;;;;36.58;24.32;99338.84;5077448;28;20122;-58
2022/07/05 08:34:10;;;;;;;12.43;8.50;;;;;;;37.98;23.16;99323.69;5100219;28;20051;-51
2022/07/05 08:36:36;;;;;;;8.35;7.57;;;;;;;38.94;21.48;99347.38;5091841;28;20044;-50
2022/07/05 08:39:05;;;;;;;9.20;8.38;;;;;;;39.86;20.47;99348.91;5073296;28;20036;-50
2022/07/05 08:41:33;;;;;;;8.95;7.93;;;;;;;39.83;20.92;99349.44;5104019;28;20138;-51
2022/07/05 08:44:00;;;;;;;8.93;7.75;;;;;;;40.68;20.68;99348.88;5097516;28;20050;-51
2022/07/05 08:46:25;;;;;;;9.13;8.32;;;;;;;41.18;19.37;99349.44;5076564;28;20035;-49
2022/07/05 08:48:51;;;;;;;10.73;8.80;;;;;;;41.83;18.97;99351.81;5073036;28;20130;-49
2022/07/05 08:51:23;;;;;;;8.90;8.10;;;;;;;42.60;18.76;99342.94;5071160;28;20093;-50
2022/07/05 08:53:53;;;;;;;9.52;8.48;;;;;;;42.77;18.13;99334.50;5099468;28;20040;-47
2022/07/05 08:56:20;;;;;;;8.63;7.70;;;;;;;42.37;18.09;99323.44;5090336;28;20051;-48
2022/07/05 08:58:45;;;;;;;10.80;8.43;;;;;;;42.12;19.06;99335.06;5090251;28;20040;-49
2022/07/05 09:01:13;;;;;;;9.80;8.68;;;;;;;42.27;17.97;99333.22;5090093;28;20058;-51
2022/07/05 09:03:49;;;;;;;;;;;;;;;42.42;17.88;99331.66;5090799;28;20040;-50
2022/07/05 09:06:25;;;;;;;9.52;8.63;;;;;;;41.70;18.41;99324.16;5090261;28;19920;-52
2022/07/05 09:08:55;;;;;;;8.43;7.63;;;;;;;41.22;19.54;99325.16;5096284;28;20170;-50
2022/07/05 09:11:25;;;;;;;8.93;7.85;;;;;;;40.06;20.54;99322.78;5070717;28;20507;-51
2022/07/05 09:13:51;;;;;;;17.85;8.30;;;;;;;39.51;20.99;99316.53;5075362;28;20415;-54
2022/07/05 09:16:17;;;;;;;8.80;7.97;;;;;;;39.23;20.81;99295.66;5096059;28;20036;-50
2022/07/05 09:18:47;;;;;;;8.35;7.75;;;;;;;38.94;20.98;99311.22;5101478;28;20039;-55
2022/07/05 09:21:17;;;;;;;8.70;7.78;;;;;;;38.51;21.34;99319.91;5087570;28;20106;-54
2022/07/05 09:23:45;;;;;;;8.25;7.55;;;;;;;38.27;21.98;99315.59;5091031;28;20051;-52
2022/07/05 09:26:10;;;;;;;9.75;7.80;;;;;;;37.65;22.72;99309.91;5093997;28;20079;-55
2022/07/05 09:28:37;;;;;;;9.73;8.60;;;;;;;37.52;23.03;99312.84;5101674;28;20071;-48
2022/07/05 09:31:03;;;;;;;9.18;8.35;;;;;;;38.09;22.65;99309.28;5091739;28;20092;-49
2022/07/05 09:33:28;;;;;;;8.75;8.05;;;;;;;39.14;21.57;99308.03;5090684;28;20039;-51
2022/07/05 09:35:58;;;;;;;9.63;8.02;;;;;;;38.66;21.78;99308.50;5090295;28;20418;-49
2022/07/05 09:38:25;;;;;;;10.20;8.65;;;;;;;37.39;22.99;99313.03;5071972;28;20411;-48
2022/07/05 09:40:58;;;;;;;10.53;9.17;;;;;;;36.64;24.24;99304.63;5090258;28;20055;-50
2022/07/05 09:43:26;;;;;;;9.25;8.35;;;;;;;36.62;23.66;99302.16;5073018;28;20047;-49
2022/07/05 09:46:02;;;;;;;9.52;8.43;;;;;;;36.39;24.50;99302.00;5072430;28;20040;-48
2022/07/05 09:48:31;;;;;;;9.52;8.63;;;;;;;36.01;25.11;99313.09;5108177;28;20047;-48
2022/07/05 09:51:10;;;;;;;9.07;8.18;;;;;;;35.52;26.21;99297.75;5097419;28;20503;-49
2022/07/05 09:53:47;;;;;;;9.55;8.75;;;;;;;35.06;26.55;99304.38;5110445;28;20111;-45
2022/07/05 09:56:13;;;;;;;8.82;8.02;;;;;;;34.65;27.26;99294.00;5075515;28;20555;-51
2022/07/05 09:58:40;;;;;;;12.68;8.98;;;;;;;34.46;28.05;99308.47;5092330;28;20427;-47
2022/07/05 10:01:30;;;;;;;10.82;8.60;;;;;;;34.24;28.23;99312.50;5095156;28;20144;-51
2022/07/05 10:04:03;;;;;;;10.13;9.20;;;;;;;33.99;29.10;99302.41;5092974;28;20043;-51
2022/07/05 10:06:32;;;;;;;15.63;9.57;;;;;;;33.84;29.85;99320.69;5100429;28;20085;-50
2022/07/05 10:09:01;;;;;;;9.93;8.93;;;;;;;33.57;31.61;99303.72;5075990;28;20434;-46
2022/07/05 10:11:27;;;;;;;20.30;13.95;;;;;;;34.02;33.12;99304.66;5071817;28;20032;-49
2022/07/05 10:13:53;;;;;;;28.38;19.13;;;;;;;35.22;31.84;99314.69;5070817;28;20089;-50
2022/07/05 10:16:22;;;;;;;21.92;13.95;;;;;;;37.04;28.98;99315.69;5095953;28;20044;-47
2022/07/05 10:18:53;;;;;;;15.32;12.63;;;;;;;38.65;27.93;99317.72;5095068;28;20180;-47
2022/07/05 10:21:19;;;;;;;18.80;10.77;;;;;;;39.84;26.54;99312.94;5078586;28;20072;-51
2022/07/05 10:23:47;;;;;;;16.70;12.13;;;;;;;40.81;25.71;99313.03;5098252;28;21498;-53
2022/07/05 10:26:13;;;;;;;;;;;;;;;41.70;24.92;99321.44;5096906;28;20054;-52
2022/07/05 10:28:40;;;;;;;16.48;10.90;;;;;;;42.45;23.33;99320.19;5083644;28;19919;-48
2022/07/05 10:31:09;;;;;;;14.23;9.98;;;;;;;43.03;20.87;99288.81;5079832;28;20500;-47
2022/07/05 10:33:35;;;;;;;13.85;10.27;;;;;;;43.77;20.17;99302.72;5074772;28;20046;-51
2022/07/05 10:36:02;;;;;;;11.15;9.65;;;;;;;43.77;19.88;99310.13;5088429;28;20063;-47
2022/07/05 10:38:28;;;;;;;14.15;10.52;;;;;;;43.01;20.46;99289.09;5091757;28;20089;-49
2022/07/05 10:40:57;;;;;;;10.48;9.38;;;;;;;42.79;20.88;99293.19;5074593;28;20083;-48
2022/07/05 10:43:23;;;;;;;11.48;10.00;;;;;;;42.34;21.29;99291.19;5072985;28;20036;-51
2022/07/05 10:45:50;;;;;;;10.65;9.55;;;;;;;42.48;21.08;99306.78;5071134;28;20104;-48
2022/07/05 10:48:19;;;;;;;14.30;10.13;;;;;;;41.10;22.40;99308.13;5089986;28;20039;-49
2022/07/05 10:50:47;;;;;;;14.73;12.27;;;;;;;40.15;23.68;99304.91;5093795;28;20884;-48
2022/07/05 10:53:18;;;;;;;12.48;10.02;;;;;;;39.02;25.18;99294.50;5089308;28;20054;-48
2022/07/05 10:55:57;;;;;;;10.52;8.70;;;;;;;37.96;26.31;99303.25;5093332;28;20044;-48
2022/07/05 10:58:24;;;;;;;11.80;9.13;;;;;;;36.82;27.72;99304.56;5093431;28;20039;-50
2022/07/05 11:01:12;;;;;;;13.32;9.80;;;;;;;35.87;28.62;99298.88;5088604;28;20028;-50
2022/07/05 11:03:40;;;;;;;9.93;8.90;;;;;;;35.08;29.34;99280.63;5090729;28;20511;-48
2022/07/05 11:06:07;;;;;;;11.45;7.60;;;;;;;34.63;29.94;99293.41;5074407;28;20036;-49
2022/07/05 11:09:07;;;;;;;11.50;8.20;;;;;;;34.00;30.43;99290.56;5074095;28;20036;-51
2022/07/05 11:11:52;;;;;;;9.00;7.55;;;;;;;33.55;30.99;99295.00;5089687;28;20093;-52
2022/07/05 11:14:25;;;;;;;12.85;8.90;;;;;;;33.09;32.33;99296.84;5092432;28;20427;-52
2022/07/05 11:17:12;;;;;;;11.18;9.80;;;;;;;32.48;34.87;99298.81;5091695;28;20051;-46
2022/07/05 11:19:57;;;;;;;12.77;10.05;;;;;;;31.71;37.41;99297.19;5091842;28;20043;-49
2022/07/05 11:22:23;;;;;;;13.38;9.50;;;;;;;31.56;37.74;99294.56;5040037;28;20062;-49
2022/07/05 11:24:49;;;;;;;14.68;9.95;;;;;;;31.96;38.25;99289.47;5076919;28;20044;-46
2022/07/05 11:27:15;;;;;;;10.30;8.60;;;;;;;31.98;38.42;99285.53;5078800;28;20430;-45
2022/07/05 11:29:51;;;;;;;11.38;8.50;;;;;;;32.05;38.83;99290.94;5073976;28;20039;-50
2022/07/05 11:32:22;;;;;;;11.35;8.38;;;;;;;33.82;36.64;99295.78;5092544;28;20123;-50
2022/07/05 11:34:52;;;;;;;9.90;8.57;;;;;;;35.58;34.07;99292.28;5092691;28;20040;-50
2022/07/05 11:37:34;;;;;;;9.48;7.75;;;;;;;36.69;32.60;99293.94;5074389;28;20047;-51